Time;durP1;ratioP1;P1;durP2;ratioP2;P2;SDS_P1;SDS_P2;PMS_P1;PMS_P2;Temp;Humidity;BMP_temperature;BMP_pressure;BME280_temperature;BME280_humidity;BME280_pressure;Samples;Min_cycle;Max_cycle;Signal;HPM_P1;HPM_P2
2023/03/09 00:01:06;;;;;;;62.23;33.03;;;;;;;7.74;49.29;99359.66;124648;1099;104248;-76
2023/03/09 00:03:37;;;;;;;69.20;33.90;;;;;;;7.72;49.11;99356.13;124679;1099;104206;-76
2023/03/09 00:06:09;;;;;;;71.53;34.00;;;;;;;7.71;49.44;99355.26;124671;1099;104226;-76
2023/03/09 00:08:40;;;;;;;61.93;31.03;;;;;;;7.72;49.39;99350.91;124667;1099;104658;-76
2023/03/09 00:11:12;;;;;;;64.57;33.23;;;;;;;7.72;48.92;99346.56;124691;1099;102126;-76
2023/03/09 00:13:43;;;;;;;68.57;33.90;;;;;;;7.72;48.99;99337.86;124660;1099;101993;-76
2023/03/09 00:16:17;;;;;;;57.30;32.00;;;;;;;7.71;49.23;99336.08;124596;1099;104239;-76
2023/03/09 00:18:47;;;;;;;;;;;;;;;7.67;49.84;99334.23;124752;1099;102287;-76
2023/03/09 00:21:34;;;;;;;49.63;25.93;;;;;;;7.66;49.60;99337.68;124638;1099;104274;-76
2023/03/09 00:24:11;;;;;;;48.63;25.77;;;;;;;7.66;49.55;99324.63;124682;1098;104175;-76
2023/03/09 00:26:44;;;;;;;53.57;28.70;;;;;;;7.68;49.63;99331.67;124647;1099;104220;-76
2023/03/09 00:29:16;;;;;;;57.27;27.23;;;;;;;7.68;49.40;99321.23;124594;1099;102288;-76
2023/03/09 00:31:47;;;;;;;53.50;27.70;;;;;;;7.66;49.82;99324.63;124641;1098;104201;-76
2023/03/09 00:34:19;;;;;;;56.23;27.50;;;;;;;7.61;49.45;99321.01;124678;1099;101870;-76
2023/03/09 00:36:51;;;;;;;59.55;28.45;;;;;;;7.57;49.67;99317.40;124668;1099;104195;-76
2023/03/09 00:39:22;;;;;;;56.23;26.50;;;;;;;7.56;49.45;99316.53;124677;1098;104281;-76
2023/03/09 00:41:54;;;;;;;52.90;28.00;;;;;;;7.58;49.80;99307.86;124583;1099;102620;-76
2023/03/09 00:44:25;;;;;;;52.53;28.30;;;;;;;7.57;49.79;99309.57;124645;1099;102258;-76
2023/03/09 00:46:56;;;;;;;59.93;30.10;;;;;;;7.58;49.73;99319.18;124609;1099;102312;-76
2023/03/09 00:49:28;;;;;;;61.57;31.23;;;;;;;7.56;49.77;99319.14;124666;1099;104347;-76
2023/03/09 00:51:59;;;;;;;62.50;31.20;;;;;;;7.52;49.85;99313.78;124695;1099;104265;-76
2023/03/09 00:54:30;;;;;;;66.10;33.00;;;;;;;7.47;49.77;99308.43;124606;1099;104376;-76
2023/03/09 00:57:02;;;;;;;66.33;34.40;;;;;;;7.43;50.17;99309.17;124642;1098;101827;-76
2023/03/09 00:59:34;;;;;;;61.37;32.13;;;;;;;7.41;49.91;99310.86;124644;1099;102804;-75
2023/03/09 01:02:05;;;;;;;54.77;27.57;;;;;;;7.40;50.20;99314.30;124876;1098;104220;-75
2023/03/09 01:04:37;;;;;;;51.63;25.53;;;;;;;7.39;50.17;99309.94;124618;1099;104357;-76
2023/03/09 01:07:08;;;;;;;53.23;28.07;;;;;;;7.39;50.60;99309.94;124547;1099;104207;-77
2023/03/09 01:09:40;;;;;;;52.63;25.77;;;;;;;7.38;50.43;99311.64;124440;1099;104190;-76
2023/03/09 01:12:11;;;;;;;49.87;24.33;;;;;;;7.38;50.77;99300.33;124675;1098;104213;-76
2023/03/09 01:14:43;;;;;;;48.07;25.37;;;;;;;7.39;50.86;99299.50;124660;1099;104172;-76
2023/03/09 01:17:15;;;;;;;52.30;24.93;;;;;;;7.39;50.78;99291.67;124612;1099;104319;-76
2023/03/09 01:19:48;;;;;;;43.13;21.97;;;;;;;7.42;50.80;99288.24;124608;1099;104754;-76
2023/03/09 01:22:19;;;;;;;40.17;20.33;;;;;;;7.44;50.73;99281.36;124647;1098;104211;-76
2023/03/09 01:24:51;;;;;;;38.20;18.10;;;;;;;7.45;51.14;99278.80;124647;1098;102255;-76
2023/03/09 01:27:22;;;;;;;34.70;15.80;;;;;;;7.50;51.03;99279.80;124672;1099;104169;-76
2023/03/09 01:29:53;;;;;;;31.77;15.70;;;;;;;7.55;50.83;99274.71;124632;1099;101883;-76
2023/03/09 01:32:26;;;;;;;34.03;15.73;;;;;;;7.63;50.83;99282.77;124686;1099;101850;-76
2023/03/09 01:34:57;;;;;;;33.53;15.43;;;;;;;7.68;51.03;99283.77;124649;1099;104182;-76
2023/03/09 01:37:29;;;;;;;29.83;14.83;;;;;;;7.72;51.00;99278.67;124636;1099;104152;-76
2023/03/09 01:40:03;;;;;;;29.73;15.00;;;;;;;7.77;51.20;99277.92;124609;1099;101918;-76
2023/03/09 01:42:34;;;;;;;30.48;14.70;;;;;;;7.78;51.00;99261.42;124698;1099;101915;-75
2023/03/09 01:45:52;;;;;;;33.60;17.00;;;;;;;7.80;51.21;99267.56;124552;1099;107140;-76
2023/03/09 01:48:23;;;;;;;31.70;16.20;;;;;;;7.79;51.53;99271.91;124658;1099;104172;-76
2023/03/09 01:50:55;;;;;;;34.43;16.17;;;;;;;7.78;51.03;99275.36;124549;1099;104319;-76
2023/03/09 01:53:27;;;;;;;33.30;17.17;;;;;;;7.79;51.43;99276.23;124666;1099;104166;-76
2023/03/09 01:56:00;;;;;;;31.20;16.03;;;;;;;7.79;51.58;99274.52;124638;1099;101879;-76
2023/03/09 01:58:33;;;;;;;32.90;16.03;;;;;;;7.80;51.10;99280.62;124610;1099;104195;-76
2023/03/09 02:01:05;;;;;;;32.30;15.57;;;;;;;7.79;51.42;99273.62;124660;1099;102098;-76
2023/03/09 02:03:41;;;;;;;35.13;16.17;;;;;;;7.78;51.19;99262.30;124588;1099;104245;-76
2023/03/09 02:06:16;;;;;;;32.07;16.90;;;;;;;7.74;51.64;99263.95;124654;1099;102016;-76
2023/03/09 02:08:54;;;;;;;35.47;17.20;;;;;;;7.69;51.70;99268.14;124577;1099;104229;-76
2023/03/09 02:11:25;;;;;;;35.37;17.37;;;;;;;7.66;51.23;99261.96;124578;1099;104261;-76
2023/03/09 02:13:56;;;;;;;34.55;16.55;;;;;;;7.62;51.46;99263.61;124587;1099;104270;-76
2023/03/09 02:16:28;;;;;;;31.10;16.13;;;;;;;7.63;51.55;99262.75;124568;1098;104230;-76
2023/03/09 02:18:59;;;;;;;32.60;15.47;;;;;;;7.61;51.73;99264.45;124608;1099;104354;-76
2023/03/09 02:21:38;;;;;;;32.57;15.33;;;;;;;7.59;51.90;99265.23;124604;1099;101994;-76
2023/03/09 02:24:18;;;;;;;41.67;17.97;;;;;;;7.59;51.85;99270.45;124528;1099;101893;-76
2023/03/09 02:26:54;;;;;;;39.20;16.93;;;;;;;7.58;51.61;99268.70;124644;1099;104241;-76
2023/03/09 02:29:27;;;;;;;37.70;15.65;;;;;;;7.58;52.02;99268.70;124637;1099;104224;-76
2023/03/09 02:31:58;;;;;;;34.80;15.30;;;;;;;7.57;51.78;99262.58;124545;1098;104223;-76
2023/03/09 02:34:29;;;;;;;38.97;14.73;;;;;;;7.61;51.54;99271.41;124617;1099;104379;-76
2023/03/09 02:37:01;;;;;;;42.93;16.27;;;;;;;7.63;51.60;99277.54;124590;1099;104357;-75
2023/03/09 02:39:39;;;;;;;29.13;13.67;;;;;;;7.66;51.88;99273.28;124601;1099;104226;-75
2023/03/09 02:42:11;;;;;;;30.17;13.43;;;;;;;7.68;52.08;99260.27;124586;1098;101991;-76
2023/03/09 02:44:43;;;;;;;27.00;12.60;;;;;;;7.69;51.97;99264.66;124558;1099;102891;-76
2023/03/09 02:47:19;;;;;;;28.07;13.70;;;;;;;7.71;52.12;99270.80;124594;1099;104293;-76
2023/03/09 02:49:51;;;;;;;28.90;13.07;;;;;;;7.71;52.03;99262.96;124598;1099;104175;-76
2023/03/09 02:52:23;;;;;;;29.73;12.43;;;;;;;7.72;51.58;99262.13;124609;1099;104230;-76
2023/03/09 02:54:56;;;;;;;31.35;12.82;;;;;;;7.74;51.96;99263.95;124551;1099;104284;-76
2023/03/09 02:57:28;;;;;;;26.20;12.17;;;;;;;7.76;52.00;99274.44;124539;1099;102060;-76
2023/03/09 02:59:59;;;;;;;23.10;11.27;;;;;;;7.80;52.14;99278.01;124645;1099;101931;-76
2023/03/09 03:02:30;;;;;;;26.03;12.13;;;;;;;7.83;51.67;99276.35;124606;1099;104322;-76
2023/03/09 03:05:02;;;;;;;28.00;11.93;;;;;;;7.84;52.28;99274.65;124640;1099;104670;-76
2023/03/09 03:07:34;;;;;;;32.03;12.50;;;;;;;7.84;52.08;99270.30;125107;1099;102306;-76
2023/03/09 03:10:06;;;;;;;26.17;12.23;;;;;;;7.87;52.35;99264.28;124195;1099;104175;-76
2023/03/09 03:12:38;;;;;;;23.67;11.33;;;;;;;7.89;51.72;99260.84;124204;1099;102369;-76
2023/03/09 03:15:11;;;;;;;28.10;12.73;;;;;;;7.91;52.13;99266.11;124603;1099;104406;-76
2023/03/09 03:17:43;;;;;;;24.65;11.93;;;;;;;7.92;51.88;99260.06;124715;1099;104252;-76
2023/03/09 03:20:15;;;;;;;25.97;11.13;;;;;;;7.96;52.07;99266.23;124626;1099;104801;-74
2023/03/09 03:22:48;;;;;;;26.60;11.43;;;;;;;7.96;51.80;99258.40;125950;1098;101852;-74
2023/03/09 03:25:21;;;;;;;24.95;10.95;;;;;;;7.95;52.29;99254.91;124616;1099;102325;-74
2023/03/09 03:27:53;;;;;;;26.63;12.00;;;;;;;7.96;51.86;99261.01;124612;1099;104411;-74
2023/03/09 03:30:25;;;;;;;24.97;11.80;;;;;;;7.98;52.33;99251.47;124651;1099;104242;-74
2023/03/09 03:32:57;;;;;;;25.47;12.63;;;;;;;7.97;52.45;99250.61;124620;1099;104261;-74
2023/03/09 03:35:32;;;;;;;23.27;11.47;;;;;;;7.98;52.25;99241.02;124587;1099;104169;-74
2023/03/09 03:38:03;;;;;;;28.27;11.97;;;;;;;8.00;52.21;99241.97;125960;1098;101920;-74
2023/03/09 03:40:35;;;;;;;28.63;12.20;;;;;;;8.02;52.18;99240.27;124647;1099;104326;-74
2023/03/09 03:43:09;;;;;;;27.05;12.70;;;;;;;8.03;52.26;99240.31;124663;1099;104230;-74
2023/03/09 03:45:41;;;;;;;28.47;12.97;;;;;;;8.02;52.14;99241.14;124637;1099;103052;-74
2023/03/09 03:48:15;;;;;;;25.70;12.57;;;;;;;8.02;52.54;99230.70;124265;1099;104220;-76
2023/03/09 03:50:47;;;;;;;27.37;12.40;;;;;;;8.02;51.95;99230.70;124611;1098;104203;-76
2023/03/09 03:53:18;;;;;;;25.30;12.37;;;;;;;8.00;52.54;99216.72;124660;1099;104182;-76
2023/03/09 03:55:51;;;;;;;31.60;12.33;;;;;;;7.98;52.67;99213.20;124273;1099;104299;-76
2023/03/09 03:58:33;;;;;;;27.30;13.03;;;;;;;7.95;52.48;99206.98;124672;1099;104241;-76
2023/03/09 04:01:06;;;;;;;29.80;12.40;;;;;;;7.90;52.21;99199.06;124649;1099;104313;-76
2023/03/09 04:03:37;;;;;;;32.40;13.08;;;;;;;7.86;52.15;99197.21;124660;1099;104169;-76
2023/03/09 04:06:09;;;;;;;31.17;12.93;;;;;;;7.83;52.44;99192.78;124579;1099;104380;-76
2023/03/09 04:08:41;;;;;;;28.93;12.30;;;;;;;7.81;52.38;99204.92;124635;1099;104373;-76
2023/03/09 04:11:30;;;;;;;24.00;11.77;;;;;;;7.80;52.13;99202.27;124643;1099;101896;-76
2023/03/09 04:14:07;;;;;;;25.27;11.03;;;;;;;7.78;52.57;99206.58;124325;1099;104326;-76
2023/03/09 04:16:38;;;;;;;26.10;11.73;;;;;;;7.72;52.50;99212.52;124664;1099;104329;-77
2023/03/09 04:19:10;;;;;;;24.60;11.60;;;;;;;7.67;52.38;99207.17;124590;1099;104204;-76
2023/03/09 04:21:44;;;;;;;27.02;11.93;;;;;;;7.65;52.42;99202.74;124657;1099;104166;-74
2023/03/09 04:24:16;;;;;;;24.10;11.53;;;;;;;7.64;52.14;99208.83;124540;1099;101957;-74
2023/03/09 04:26:47;;;;;;;29.03;11.83;;;;;;;7.62;52.73;99200.05;124682;1099;104307;-74
2023/03/09 04:29:39;;;;;;;26.20;12.20;;;;;;;7.61;52.93;99200.91;124581;1099;104286;-74
2023/03/09 04:32:12;;;;;;;26.47;12.30;;;;;;;7.58;52.41;99193.00;125432;1099;104325;-74
2023/03/09 04:34:43;;;;;;;25.60;12.70;;;;;;;7.58;52.82;99200.83;124544;1099;104351;-74
2023/03/09 04:37:15;;;;;;;25.63;12.00;;;;;;;7.58;52.59;99195.61;124631;1099;104280;-74
2023/03/09 04:39:47;;;;;;;24.83;12.37;;;;;;;7.57;52.53;99192.09;124644;1099;104265;-74
2023/03/09 04:42:19;;;;;;;25.63;12.40;;;;;;;7.54;52.99;99194.63;125522;1099;101955;-74
2023/03/09 04:44:51;;;;;;;26.40;12.30;;;;;;;7.50;52.98;99195.41;124522;1099;104224;-74
2023/03/09 04:47:23;;;;;;;26.77;12.27;;;;;;;7.47;52.88;99195.32;124657;1099;101907;-74
2023/03/09 04:49:54;;;;;;;30.60;13.10;;;;;;;7.48;53.05;99190.14;124655;1099;104217;-74
2023/03/09 04:52:26;;;;;;;29.17;13.00;;;;;;;7.51;52.74;99187.61;124596;1099;104204;-74
2023/03/09 04:54:59;;;;;;;27.10;12.90;;;;;;;7.54;52.68;99189.40;124465;1100;104242;-76
2023/03/09 04:57:31;;;;;;;27.65;12.45;;;;;;;7.55;53.26;99185.95;125977;1099;104217;-76
2023/03/09 05:00:04;;;;;;;31.87;12.83;;;;;;;7.59;53.19;99182.59;125150;1099;104099;-76
2023/03/09 05:02:35;;;;;;;29.43;12.40;;;;;;;7.63;53.33;99183.55;125135;1099;101908;-76
2023/03/09 05:05:08;;;;;;;34.17;13.30;;;;;;;7.64;52.90;99177.50;125151;1099;104238;-76
2023/03/09 05:07:40;;;;;;;37.97;13.57;;;;;;;7.68;52.85;99172.40;124692;1099;102565;-76
2023/03/09 05:10:14;;;;;;;26.97;13.43;;;;;;;7.77;52.98;99166.51;124633;1099;104153;-76
2023/03/09 05:12:48;;;;;;;29.97;13.20;;;;;;;7.85;52.90;99172.84;125092;1099;104220;-76
2023/03/09 05:15:23;;;;;;;29.33;12.87;;;;;;;7.96;53.27;99180.03;125054;1099;104192;-76
2023/03/09 05:17:55;;;;;;;27.30;12.83;;;;;;;8.07;53.32;99175.95;125153;1099;102542;-76
2023/03/09 05:20:27;;;;;;;27.80;12.47;;;;;;;8.18;53.34;99179.73;125055;1099;104176;-76
2023/03/09 05:23:09;;;;;;;28.33;12.03;;;;;;;8.28;53.29;99170.37;124720;1099;102178;-76
2023/03/09 05:25:41;;;;;;;30.60;12.73;;;;;;;8.43;53.62;99177.66;125075;1099;102109;-76
2023/03/09 05:28:14;;;;;;;26.07;12.07;;;;;;;8.53;53.27;99177.08;124655;1099;102121;-77
2023/03/09 05:30:46;;;;;;;26.57;12.60;;;;;;;8.65;53.29;99171.25;125029;1099;102401;-76
2023/03/09 05:33:17;;;;;;;28.83;12.20;;;;;;;8.75;53.20;99170.58;125162;1099;104169;-77
2023/03/09 05:35:50;;;;;;;32.07;12.10;;;;;;;8.85;53.02;99168.16;125000;1099;104386;-76
2023/03/09 05:38:22;;;;;;;36.83;12.17;;;;;;;8.93;53.18;99175.34;124988;1099;102215;-76
2023/03/09 05:40:54;;;;;;;32.43;13.27;;;;;;;8.99;53.54;99172.85;125034;1099;104169;-76
2023/03/09 05:43:27;;;;;;;29.77;11.90;;;;;;;9.08;53.53;99174.75;125048;1099;104181;-76
2023/03/09 05:45:59;;;;;;;28.97;12.40;;;;;;;9.17;52.62;99181.92;125018;1099;102073;-76
2023/03/09 05:48:30;;;;;;;30.95;12.30;;;;;;;9.26;52.85;99173.38;125571;1098;104172;-76
2023/03/09 05:51:05;;;;;;;30.37;10.53;;;;;;;9.34;52.82;99159.56;125161;1099;102223;-77
2023/03/09 05:53:37;;;;;;;20.53;8.43;;;;;;;9.52;52.68;99169.52;125149;1099;104265;-76
2023/03/09 05:56:09;;;;;;;16.47;7.30;;;;;;;9.65;52.76;99162.76;126155;1098;101836;-77
2023/03/09 05:58:41;;;;;;;19.17;7.47;;;;;;;9.80;52.60;99159.55;125390;1099;104935;-82
2023/03/09 06:01:22;;;;;;;20.47;7.57;;;;;;;9.96;52.77;99163.30;126932;1099;101872;-79
2023/03/09 06:03:54;;;;;;;20.63;7.23;;;;;;;10.10;52.83;99158.28;125290;1099;104255;-77
2023/03/09 06:06:27;;;;;;;16.50;6.80;;;;;;;10.24;52.34;99154.13;125165;1098;104241;-77
2023/03/09 06:08:58;;;;;;;22.00;8.00;;;;;;;10.38;52.63;99154.37;124970;1099;102680;-77
2023/03/09 06:11:30;;;;;;;17.57;7.37;;;;;;;10.50;52.35;99158.03;124913;1099;104185;-77
2023/03/09 06:14:02;;;;;;;16.80;7.20;;;;;;;10.57;52.67;99145.02;124815;1099;104321;-77
2023/03/09 06:16:40;;;;;;;16.70;6.93;;;;;;;10.65;52.18;99142.51;125187;1099;104175;-76
2023/03/09 06:19:12;;;;;;;18.05;7.50;;;;;;;10.71;51.95;99147.84;125195;1099;102090;-75
2023/03/09 06:21:44;;;;;;;18.57;7.60;;;;;;;10.77;51.83;99142.67;124848;1099;104191;-78
2023/03/09 06:24:15;;;;;;;18.50;6.87;;;;;;;10.85;51.91;99141.91;124843;1099;104173;-74
2023/03/09 06:26:48;;;;;;;22.07;7.10;;;;;;;10.92;51.87;99143.72;124939;1099;101988;-80
2023/03/09 06:29:20;;;;;;;16.25;6.95;;;;;;;10.98;51.93;99135.92;124537;1099;104192;-75
2023/03/09 06:31:52;;;;;;;20.50;7.60;;;;;;;11.03;51.79;99143.86;124362;1099;102496;-74
2023/03/09 06:34:32;;;;;;;15.63;6.87;;;;;;;11.06;51.36;99139.52;124872;1099;102463;-75
2023/03/09 06:37:10;;;;;;;15.93;6.83;;;;;;;11.10;51.33;99146.58;124747;1099;104236;-75
2023/03/09 06:39:47;;;;;;;18.50;6.97;;;;;;;11.13;51.36;99146.61;125053;1099;104303;-76
2023/03/09 06:42:25;;;;;;;15.37;6.73;;;;;;;11.15;51.20;99139.63;124703;1099;102060;-77
2023/03/09 06:45:00;;;;;;;18.97;7.07;;;;;;;11.15;51.20;99141.38;124375;1099;104256;-75
2023/03/09 06:47:35;;;;;;;17.30;7.10;;;;;;;11.19;51.22;99137.94;124434;1099;104699;-76
2023/03/09 06:50:12;;;;;;;20.33;8.07;;;;;;;11.23;51.10;99139.72;124481;1099;102100;-74
2023/03/09 06:52:47;;;;;;;14.20;6.53;;;;;;;11.28;51.32;99131.89;124691;1099;104370;-73
2023/03/09 06:55:22;;;;;;;19.43;7.37;;;;;;;11.30;50.66;99135.44;124764;1099;102038;-73
2023/03/09 06:57:59;;;;;;;17.73;6.87;;;;;;;11.33;50.74;99132.84;124402;1099;104162;-72
2023/03/09 07:00:32;;;;;;;14.47;6.57;;;;;;;11.37;50.68;99123.23;124713;1099;101932;-73
2023/03/09 07:03:09;;;;;;;20.70;6.97;;;;;;;11.42;50.59;99127.69;124698;1099;104312;-74
2023/03/09 07:05:38;;;;;;;;;;;;;;;11.51;50.62;99121.62;124770;1099;104258;-74
2023/03/09 07:08:13;;;;;;;20.57;8.03;;;;;;;11.61;50.55;99122.59;124801;1098;104224;-73
2023/03/09 07:10:55;;;;;;;18.70;7.73;;;;;;;11.74;50.54;99118.34;124741;1099;101823;-75
2023/03/09 07:13:26;;;;;;;17.47;7.80;;;;;;;11.90;50.25;99108.84;124326;1099;101852;-75
2023/03/09 07:16:00;;;;;;;19.57;6.47;;;;;;;12.11;49.94;99110.80;124289;1099;103608;-73
2023/03/09 07:18:31;;;;;;;18.85;7.30;;;;;;;12.29;49.82;99097.74;124612;1099;104191;-73
2023/03/09 07:21:10;;;;;;;15.87;7.43;;;;;;;12.51;49.96;99106.67;124700;1099;104251;-75
2023/03/09 07:24:01;;;;;;;17.77;6.43;;;;;;;12.72;49.97;99108.52;124633;1099;104249;-76
2023/03/09 07:26:45;;;;;;;16.53;6.17;;;;;;;12.93;50.09;99101.57;124689;1099;104284;-75
2023/03/09 07:29:19;;;;;;;16.27;6.27;;;;;;;13.11;49.51;99106.03;124870;1099;101973;-76
2023/03/09 07:31:54;;;;;;;16.23;6.00;;;;;;;13.28;49.69;99106.95;124810;1099;102015;-76
2023/03/09 07:34:26;;;;;;;17.83;6.63;;;;;;;13.46;49.22;99102.63;124683;1099;104275;-75
2023/03/09 07:36:57;;;;;;;15.87;5.70;;;;;;;13.60;48.52;99111.45;124646;1099;104241;-74
2023/03/09 07:39:29;;;;;;;19.50;5.80;;;;;;;13.74;48.79;99098.25;124701;1099;101827;-76
2023/03/09 07:42:01;;;;;;;13.53;6.13;;;;;;;13.88;48.20;99103.53;124752;1099;102413;-76
2023/03/09 07:44:48;;;;;;;19.90;6.10;;;;;;;13.99;47.95;99103.53;124264;1099;102244;-77
2023/03/09 07:47:20;;;;;;;15.00;5.90;;;;;;;14.08;47.75;99098.25;124325;1099;104359;-75
2023/03/09 07:50:12;;;;;;;22.60;5.93;;;;;;;14.14;47.58;99098.25;124749;1099;104719;-77
2023/03/09 07:52:49;;;;;;;17.80;6.00;;;;;;;14.26;47.70;99092.09;124758;1099;102034;-74
2023/03/09 07:55:23;;;;;;;13.97;5.70;;;;;;;14.35;47.26;99092.07;124735;1099;104303;-74
2023/03/09 07:57:59;;;;;;;13.10;5.53;;;;;;;14.47;47.03;99091.14;124291;1099;104226;-75
2023/03/09 08:00:33;;;;;;;13.70;5.87;;;;;;;14.56;47.18;99085.84;124673;1099;102888;-79
2023/03/09 08:03:07;;;;;;;14.13;5.63;;;;;;;14.71;47.25;99090.23;124839;1099;102255;-77
2023/03/09 08:05:40;;;;;;;14.23;5.12;;;;;;;14.85;47.23;99086.64;124729;1099;102311;-79
2023/03/09 08:08:13;;;;;;;9.28;4.75;;;;;;;14.95;46.08;99077.80;124934;1099;102793;-77
2023/03/09 08:10:49;;;;;;;12.03;4.63;;;;;;;15.08;46.19;99074.23;125108;1099;102332;-78
2023/03/09 08:13:23;;;;;;;14.93;5.53;;;;;;;15.25;46.45;99075.88;124810;1099;104294;-75
2023/03/09 08:15:54;;;;;;;28.27;5.87;;;;;;;15.41;45.22;99069.62;124315;1099;103177;-76
2023/03/09 08:18:26;;;;;;;14.57;5.13;;;;;;;15.54;45.97;99065.11;124282;1099;102226;-73
2023/03/09 08:21:03;;;;;;;13.15;4.55;;;;;;;15.65;44.97;99065.03;124730;1099;104268;-74
2023/03/09 08:23:39;;;;;;;14.10;4.60;;;;;;;15.73;45.30;99071.13;124578;1099;104296;-75
2023/03/09 08:26:12;;;;;;;9.93;4.53;;;;;;;15.80;45.45;99064.95;124734;1099;104245;-75
2023/03/09 08:28:45;;;;;;;12.63;4.67;;;;;;;15.94;45.59;99059.53;124669;1099;104233;-75
2023/03/09 08:31:19;;;;;;;14.00;5.57;;;;;;;16.05;44.50;99058.53;124721;1099;104165;-73
2023/03/09 08:33:53;;;;;;;11.70;5.10;;;;;;;16.18;45.04;99061.05;124316;1099;102738;-75
2023/03/09 08:36:25;;;;;;;13.33;5.17;;;;;;;16.33;45.04;99052.09;124572;1099;104233;-79
2023/03/09 08:38:57;;;;;;;14.13;5.23;;;;;;;16.43;44.62;99058.14;124908;1099;104255;-78
2023/03/09 08:41:31;;;;;;;23.13;5.40;;;;;;;16.50;44.61;99054.55;124998;1099;104239;-76
2023/03/09 08:44:05;;;;;;;16.50;5.53;;;;;;;16.63;43.79;99041.16;124527;1099;104176;-77
2023/03/09 08:46:40;;;;;;;15.37;5.23;;;;;;;16.73;43.86;99045.44;124805;1099;102190;-75
2023/03/09 08:49:12;;;;;;;14.07;5.03;;;;;;;16.85;43.96;99042.63;124721;1099;101954;-74
2023/03/09 08:51:46;;;;;;;13.27;5.10;;;;;;;16.96;43.69;99028.41;125030;1099;104235;-74
2023/03/09 08:54:21;;;;;;;12.53;4.90;;;;;;;17.07;43.36;99027.34;124708;1099;104301;-73
2023/03/09 08:56:53;;;;;;;11.93;4.85;;;;;;;17.21;42.85;99019.19;124330;1099;104166;-73
2023/03/09 08:59:24;;;;;;;11.53;4.40;;;;;;;17.31;42.38;99021.70;124780;1098;104214;-74
2023/03/09 09:01:59;;;;;;;11.63;5.00;;;;;;;17.39;42.43;99011.84;124620;1099;104407;-72
2023/03/09 09:04:31;;;;;;;13.80;5.00;;;;;;;17.46;42.53;99016.16;124180;1099;104211;-72
2023/03/09 09:07:04;;;;;;;12.13;4.87;;;;;;;17.55;41.82;99018.66;124592;1099;104182;-72
2023/03/09 09:09:36;;;;;;;12.27;4.70;;;;;;;17.58;41.95;99008.01;124623;1099;104179;-71
2023/03/09 09:12:08;;;;;;;12.57;4.50;;;;;;;17.67;41.91;99016.70;124680;1099;104185;-72
2023/03/09 09:14:40;;;;;;;9.60;4.03;;;;;;;17.71;41.60;99013.11;124599;1099;104219;-77
2023/03/09 09:17:11;;;;;;;12.60;4.47;;;;;;;17.79;41.71;99008.53;124959;1099;104222;-72
2023/03/09 09:19:44;;;;;;;14.97;4.83;;;;;;;17.91;40.73;98995.08;124959;1099;103016;-80
2023/03/09 09:22:18;;;;;;;11.00;4.20;;;;;;;17.96;40.41;99001.17;125223;1099;102868;-72
2023/03/09 09:24:50;;;;;;;11.20;4.10;;;;;;;18.01;40.92;98990.47;124949;1099;104350;-73
2023/03/09 09:27:21;;;;;;;13.80;4.43;;;;;;;18.07;39.87;98978.88;124653;1099;104229;-72
2023/03/09 09:29:54;;;;;;;13.90;4.00;;;;;;;18.14;40.42;98980.52;124550;1099;104198;-75
2023/03/09 09:32:35;;;;;;;11.67;3.90;;;;;;;18.22;39.84;98970.62;124498;1099;101979;-72
2023/03/09 09:35:08;;;;;;;10.07;4.00;;;;;;;18.30;40.12;98966.02;124622;1099;103316;-72
2023/03/09 09:37:42;;;;;;;12.95;4.00;;;;;;;18.33;40.28;98965.95;124631;1099;104270;-72
2023/03/09 09:40:16;;;;;;;6.87;3.60;;;;;;;18.40;39.56;98965.83;124612;1099;104384;-71
2023/03/09 09:42:45;;;;;;;;;;;;;;;18.44;38.57;98952.45;124399;1099;104258;-72
2023/03/09 09:45:33;;;;;;;9.43;3.80;;;;;;;18.54;38.97;98955.78;124523;1099;104226;-72
2023/03/09 09:48:08;;;;;;;11.87;3.40;;;;;;;18.63;39.09;98960.90;124566;1099;101848;-71
2023/03/09 09:50:56;;;;;;;10.10;3.07;;;;;;;18.72;37.86;98951.86;124586;1099;101980;-74
2023/03/09 09:53:39;;;;;;;8.90;3.67;;;;;;;18.81;38.85;98956.11;124513;1099;104166;-80
2023/03/09 09:56:16;;;;;;;9.20;3.80;;;;;;;18.87;38.70;98948.03;124616;1099;104270;-72
2023/03/09 09:58:58;;;;;;;7.77;3.50;;;;;;;18.90;38.50;98945.31;124526;1099;104207;-72
2023/03/09 10:01:47;;;;;;;8.07;3.20;;;;;;;18.94;37.45;98951.42;124564;1099;104193;-72
2023/03/09 10:04:26;;;;;;;7.27;3.10;;;;;;;18.96;37.78;98963.73;124641;1099;104287;-71
2023/03/09 10:07:03;;;;;;;6.40;3.60;;;;;;;18.96;37.53;98952.24;124636;1099;104075;-73
2023/03/09 10:09:40;;;;;;;17.47;3.77;;;;;;;18.89;37.78;98958.63;124555;1097;102315;-71
2023/03/09 10:12:18;;;;;;;9.90;3.80;;;;;;;18.87;37.61;98956.01;124614;1099;104264;-70
2023/03/09 10:14:56;;;;;;;11.37;3.53;;;;;;;18.81;37.26;98948.14;124364;1099;102421;-73
2023/03/09 10:17:36;;;;;;;8.87;3.60;;;;;;;18.82;37.20;98958.73;124620;1099;104265;-75
2023/03/09 10:20:19;;;;;;;8.40;3.63;;;;;;;18.85;37.37;98947.17;124704;1099;102808;-72
2023/03/09 10:22:53;;;;;;;9.77;3.60;;;;;;;18.89;36.83;98955.97;124376;1099;101916;-73
2023/03/09 10:25:33;;;;;;;16.57;4.43;;;;;;;18.94;37.32;98952.28;124658;1099;104262;-75
2023/03/09 10:28:16;;;;;;;9.70;4.23;;;;;;;18.97;36.66;98952.20;124640;1099;101857;-72
2023/03/09 10:31:10;;;;;;;11.03;3.80;;;;;;;19.05;36.52;98949.37;124682;1099;102006;-73
2023/03/09 10:33:46;;;;;;;14.47;3.90;;;;;;;19.07;36.63;98944.88;124675;1099;104382;-73
2023/03/09 10:36:24;;;;;;;9.03;3.63;;;;;;;19.09;36.46;98950.16;124682;1099;105717;-74
2023/03/09 10:38:57;;;;;;;11.93;3.67;;;;;;;19.10;36.45;98936.83;124694;1099;104211;-72
2023/03/09 10:41:30;;;;;;;10.28;3.20;;;;;;;19.09;35.94;98932.45;124702;1099;102294;-73
2023/03/09 10:44:03;;;;;;;15.90;4.00;;;;;;;19.09;36.51;98937.77;124289;1100;101924;-72
2023/03/09 10:46:59;;;;;;;21.73;4.20;;;;;;;19.11;36.01;98933.28;124294;1099;104232;-72
2023/03/09 10:49:31;;;;;;;8.50;3.93;;;;;;;19.03;36.62;98929.94;124631;1099;104268;-73
2023/03/09 10:52:06;;;;;;;9.05;3.42;;;;;;;19.04;35.91;98932.56;124602;1099;104235;-72
2023/03/09 10:54:40;;;;;;;5.47;2.83;;;;;;;19.04;35.85;98924.59;124544;1099;104239;-73
2023/03/09 10:57:30;;;;;;;11.33;2.80;;;;;;;18.97;35.79;98919.45;124712;1099;104176;-71
2023/03/09 11:00:17;;;;;;;12.00;2.83;;;;;;;19.04;35.80;98915.71;124600;1099;104221;-72
2023/03/09 11:03:00;;;;;;;13.25;3.08;;;;;;;19.12;35.83;98902.23;124716;1099;104096;-73
2023/03/09 11:05:37;;;;;;;6.37;2.93;;;;;;;19.21;35.26;98897.59;124661;1099;101978;-71
2023/03/09 11:08:26;;;;;;;26.07;3.77;;;;;;;19.33;35.75;98901.70;124651;1098;104166;-72
2023/03/09 11:11:15;;;;;;;14.93;2.90;;;;;;;19.46;35.63;98896.96;124639;1099;104253;-74
2023/03/09 11:13:47;;;;;;;6.17;2.63;;;;;;;19.52;35.80;98901.23;124625;1099;104040;-71
2023/03/09 11:16:23;;;;;;;9.40;2.93;;;;;;;19.58;35.42;98887.77;124705;1099;104242;-71
2023/03/09 11:19:15;;;;;;;8.87;3.20;;;;;;;19.74;34.43;98882.89;124747;1099;104230;-71
2023/03/09 11:21:53;;;;;;;11.40;3.20;;;;;;;19.88;34.50;98882.55;124598;1099;104348;-71
2023/03/09 11:24:28;;;;;;;9.93;3.20;;;;;;;20.02;35.07;98872.37;124742;1099;104236;-73
2023/03/09 11:27:12;;;;;;;6.52;3.12;;;;;;;20.11;35.18;98874.77;121792;1099;10000927;-72
2023/03/09 11:29:55;;;;;;;6.43;3.50;;;;;;;20.10;35.03;98867.72;124683;1099;104328;-75
2023/03/09 11:32:28;;;;;;;7.67;3.60;;;;;;;20.06;35.12;98860.72;125223;1099;104163;-74
2023/03/09 11:35:04;;;;;;;22.03;4.73;;;;;;;19.98;35.10;98856.56;124800;1099;104241;-74
2023/03/09 11:37:43;;;;;;;14.33;4.03;;;;;;;19.92;34.25;98852.27;124779;1098;102256;-81
2023/03/09 11:40:20;;;;;;;9.73;3.70;;;;;;;19.92;35.00;98852.27;124762;1099;104205;-74
2023/03/09 11:42:56;;;;;;;13.73;4.13;;;;;;;20.03;35.06;98842.17;124385;1099;101881;-75
2023/03/09 11:45:31;;;;;;;5.83;3.30;;;;;;;20.21;34.11;98834.55;124841;1099;104235;-74